createdAt,value
2022-08-22T04:31:03.239Z,89.97
2022-08-22T04:32:03.214Z,89.01
2022-08-22T04:33:03.209Z,88.26
2022-08-22T04:34:03.192Z,87.56
2022-08-22T04:35:03.169Z,87.52
2022-08-22T04:36:03.160Z,86.81
2022-08-22T04:37:03.149Z,86.10
2022-08-22T04:38:03.139Z,86.30
2022-08-22T04:39:03.129Z,86.81
2022-08-22T04:40:03.160Z,85.84
2022-08-22T04:41:04.677Z,86.79
2022-08-22T04:42:16.322Z,87.74
2022-08-22T04:43:04.138Z,88.49
2022-08-22T04:44:03.060Z,89.04
2022-08-22T04:45:03.040Z,89.89
2022-08-22T04:46:03.027Z,91.20
2022-08-22T04:47:03.009Z,92.02
2022-08-22T04:48:03.021Z,91.61
2022-08-22T04:49:02.997Z,91.86
2022-08-22T04:50:02.984Z,92.47
2022-08-22T04:51:02.959Z,93.38
2022-08-22T04:52:02.948Z,93.33
2022-08-22T04:53:02.964Z,93.33
2022-08-22T04:54:02.931Z,92.63
2022-08-22T04:55:02.918Z,92.12
2022-08-22T04:56:07.116Z,93.39
2022-08-22T04:57:02.890Z,92.44
2022-08-22T04:58:02.879Z,91.18
2022-08-22T04:59:03.081Z,89.66
2022-08-22T05:00:02.847Z,89.97
2022-08-22T05:01:02.837Z,90.17
2022-08-22T05:02:02.844Z,89.56
2022-08-22T05:03:02.807Z,89.76
2022-08-22T05:04:02.808Z,89.46
2022-08-22T05:05:02.778Z,89.81
2022-08-22T05:06:02.763Z,90.82
2022-08-22T05:07:02.747Z,91.22
2022-08-22T05:08:02.741Z,90.72
2022-08-22T05:09:02.738Z,90.62
2022-08-22T05:10:09.279Z,91.42
2022-08-22T05:11:03.701Z,91.73
2022-08-22T05:12:02.679Z,91.18
2022-08-22T05:13:02.677Z,90.27
2022-08-22T05:14:02.668Z,90.11
2022-08-22T05:15:02.648Z,90.41
2022-08-22T05:16:02.627Z,90.82
2022-08-22T05:17:02.616Z,91.42
2022-08-22T05:18:02.610Z,91.32
2022-08-22T05:19:02.597Z,91.67
2022-08-22T05:20:02.581Z,92.33
2022-08-22T05:21:02.568Z,92.24
2022-08-22T05:22:02.569Z,91.73
2022-08-22T05:23:02.527Z,91.49
2022-08-22T05:24:02.538Z,91.28
2022-08-22T05:25:02.507Z,91.18
2022-08-22T05:26:02.505Z,90.78
2022-08-22T05:27:02.487Z,90.37
2022-08-22T05:28:02.475Z,90.58
2022-08-22T05:29:02.466Z,90.78
2022-08-22T05:30:02.437Z,90.78
2022-08-22T05:31:02.438Z,90.43
2022-08-22T05:32:02.432Z,90.43
2022-08-22T05:33:02.479Z,90.63
2022-08-22T05:34:02.403Z,90.12
2022-08-22T05:35:02.366Z,90.49
2022-08-22T05:36:02.356Z,89.78
2022-08-22T05:37:02.347Z,89.84
2022-08-22T05:38:02.339Z,89.23
2022-08-22T05:39:02.337Z,89.03
2022-08-22T05:40:02.428Z,89.74
2022-08-22T05:41:02.296Z,89.79
2022-08-22T05:42:02.288Z,88.99
2022-08-22T05:43:02.268Z,88.95
2022-08-22T05:44:02.271Z,88.54
2022-08-22T05:45:02.246Z,88.24
2022-08-22T05:46:02.240Z,88.45
2022-08-22T05:47:02.225Z,88.34
2022-08-22T05:48:02.206Z,88.30
2022-08-22T05:49:02.200Z,88.20
2022-08-22T05:50:02.188Z,88.20
2022-08-22T05:51:02.156Z,88.20
2022-08-22T05:52:02.148Z,87.70
2022-08-22T05:53:02.136Z,87.35
2022-08-22T05:54:02.145Z,86.61
2022-08-22T05:55:02.109Z,86.10
2022-08-22T05:56:02.107Z,85.70
2022-08-22T05:57:04.976Z,85.40
2022-08-22T05:58:03.084Z,85.36
2022-08-22T05:59:02.068Z,84.95
2022-08-22T06:00:02.045Z,84.95
2022-08-22T06:01:02.034Z,85.30
2022-08-22T06:02:02.105Z,85.20
2022-08-22T06:03:02.006Z,85.50
2022-08-22T06:04:02.017Z,85.36
2022-08-22T06:05:01.974Z,85.05
2022-08-22T06:06:01.966Z,85.36
2022-08-22T06:07:01.974Z,85.16
2022-08-22T06:08:01.937Z,85.16
2022-08-22T06:09:01.924Z,85.02
2022-08-22T06:10:01.917Z,84.81
2022-08-22T06:11:01.904Z,84.71
2022-08-22T06:12:01.886Z,84.41
2022-08-22T06:13:01.877Z,84.51
2022-08-22T06:14:01.878Z,84.81
2022-08-22T06:15:01.866Z,85.31
2022-08-22T06:16:01.826Z,85.16
2022-08-22T06:17:01.828Z,84.75
2022-08-22T06:18:01.806Z,84.75
2022-08-22T06:19:01.789Z,85.66
2022-08-22T06:20:01.795Z,85.25
2022-08-22T06:21:01.766Z,85.11
2022-08-22T06:22:01.755Z,84.81
2022-08-22T06:23:01.745Z,84.37
2022-08-22T06:24:01.726Z,85.24
2022-08-22T06:25:01.726Z,83.49
2022-08-22T06:26:01.698Z,82.48
2022-08-22T06:27:01.689Z,82.08
2022-08-22T06:28:01.707Z,81.58
2022-08-22T06:29:01.658Z,81.78
2022-08-22T06:30:01.659Z,82.78
2022-08-22T06:31:01.630Z,81.34
2022-08-22T06:32:01.635Z,81.84
2022-08-22T06:33:01.619Z,80.54
2022-08-22T06:34:01.606Z,80.98
2022-08-22T06:35:01.610Z,81.24
2022-08-22T06:36:01.589Z,79.49
2022-08-22T06:37:01.558Z,79.66
2022-08-22T06:38:01.551Z,79.36
2022-08-22T06:39:01.528Z,79.32
2022-08-22T06:40:01.605Z,78.58
2022-08-22T06:41:01.497Z,78.28
2022-08-22T06:42:01.487Z,78.08
2022-08-22T06:43:01.476Z,77.28
2022-08-22T06:44:01.474Z,77.58
2022-08-22T06:45:01.459Z,77.51
2022-08-22T06:46:01.437Z,76.81
2022-08-22T06:47:01.426Z,76.51
2022-08-22T06:48:01.482Z,77.01
2022-08-22T06:49:01.388Z,77.08
2022-08-22T06:50:01.397Z,76.28
2022-08-22T06:51:01.378Z,75.97
2022-08-22T06:52:01.358Z,76.43
2022-08-22T06:53:01.357Z,76.37
2022-08-22T06:54:01.339Z,76.57
2022-08-22T06:55:01.326Z,76.98
2022-08-22T06:56:01.307Z,77.41
2022-08-22T06:57:01.287Z,77.37
2022-08-22T06:58:01.321Z,77.58
2022-08-22T06:59:01.268Z,76.21
2022-08-22T07:00:01.267Z,77.65
2022-08-22T07:01:05.642Z,77.75
2022-08-22T07:02:02.250Z,77.65
2022-08-22T07:03:01.217Z,77.69
2022-08-22T07:04:01.198Z,78.89
2022-08-22T07:05:01.187Z,78.15
2022-08-22T07:06:01.168Z,77.81
2022-08-22T07:07:01.156Z,77.41
2022-08-22T07:08:01.230Z,76.71
2022-08-22T07:09:05.617Z,77.35
2022-08-22T07:10:02.121Z,77.85
2022-08-22T07:11:01.098Z,77.75
2022-08-22T07:12:01.087Z,77.15
2022-08-22T07:13:01.069Z,77.65
2022-08-22T07:14:01.065Z,78.25
2022-08-22T07:15:01.125Z,77.75
2022-08-22T07:16:01.048Z,77.81
2022-08-22T07:17:01.018Z,76.87
2022-08-22T07:18:01.149Z,76.24
2022-08-22T07:19:00.999Z,76.24
2022-08-22T07:20:00.987Z,75.04
2022-08-22T07:21:00.988Z,74.10
2022-08-22T07:22:00.959Z,74.54
2022-08-22T07:23:00.939Z,74.03
2022-08-22T07:24:00.946Z,74.23
2022-08-22T07:25:00.909Z,74.97
2022-08-22T07:26:00.917Z,75.04
2022-08-22T07:27:00.878Z,74.43
2022-08-22T07:28:00.957Z,74.73
2022-08-22T07:29:00.859Z,75.13
2022-08-22T07:30:00.848Z,74.43
2022-08-22T07:31:00.849Z,73.00
2022-08-22T07:32:00.819Z,73.30
2022-08-22T07:33:26.023Z,73.83
2022-08-22T07:34:01.790Z,73.83
2022-08-22T07:35:00.779Z,74.33
2022-08-22T07:36:00.788Z,73.73
2022-08-22T07:37:00.759Z,73.73
2022-08-22T07:38:01.046Z,74.03
2022-08-22T07:39:00.729Z,73.70
2022-08-22T07:40:00.766Z,74.00
2022-08-22T07:41:00.717Z,74.10
2022-08-22T07:42:00.680Z,74.00
2022-08-22T07:43:00.676Z,74.10
2022-08-22T07:44:00.660Z,73.76
2022-08-22T07:45:00.653Z,73.13
2022-08-22T07:46:00.643Z,72.13
2022-08-22T07:47:00.629Z,72.09
2022-08-22T07:48:00.715Z,71.69
2022-08-22T07:49:09.098Z,71.29
2022-08-22T07:50:01.579Z,71.69
2022-08-22T07:51:00.579Z,70.69
2022-08-22T07:52:00.581Z,71.29
2022-08-22T07:53:00.539Z,71.89
2022-08-22T07:54:01.030Z,72.45
2022-08-22T07:55:00.519Z,71.92
2022-08-22T07:56:00.510Z,70.62
2022-08-22T07:57:00.489Z,70.06
2022-08-22T07:58:00.594Z,70.86
2022-08-22T07:59:00.460Z,71.33
2022-08-22T08:00:00.450Z,70.72
2022-08-22T08:01:00.530Z,69.23
2022-08-22T08:02:00.420Z,69.76
2022-08-22T08:03:00.428Z,68.66
2022-08-22T08:04:00.390Z,69.76
2022-08-22T08:05:00.397Z,68.96
2022-08-22T08:06:00.381Z,68.73
2022-08-22T08:07:00.359Z,68.52
2022-08-22T08:08:00.459Z,70.29
2022-08-22T08:09:00.339Z,68.56
2022-08-22T08:10:00.312Z,67.16
2022-08-22T08:11:00.321Z,68.10
2022-08-22T08:12:00.290Z,68.76
2022-08-22T08:13:02.264Z,68.26
2022-08-22T08:14:00.261Z,67.43
2022-08-22T08:15:00.252Z,66.93
2022-08-22T08:16:00.252Z,66.60
2022-08-22T08:17:00.231Z,65.80
2022-08-22T08:18:00.396Z,66.63
2022-08-22T08:19:00.227Z,67.20
2022-08-22T08:20:00.181Z,65.17
2022-08-22T08:21:00.189Z,65.50
2022-08-22T08:22:00.159Z,65.41
2022-08-22T08:23:00.151Z,64.11
2022-08-22T08:24:00.136Z,63.01
2022-08-22T08:25:00.121Z,64.71
2022-08-22T08:26:00.121Z,65.27
2022-08-22T08:27:00.105Z,65.64
2022-08-22T08:28:00.110Z,64.91
2022-08-22T08:29:00.074Z,63.89
2022-08-22T08:30:00.061Z,63.82
2022-08-22T08:31:00.065Z,63.92
2022-08-22T08:32:00.032Z,64.09
2022-08-22T08:33:24.829Z,62.23
2022-08-22T08:34:01.002Z,62.32
2022-08-22T08:34:59.994Z,63.49
2022-08-22T08:36:02.569Z,63.85
2022-08-22T08:36:59.975Z,63.33
2022-08-22T08:38:00.117Z,62.53
2022-08-22T08:38:59.943Z,63.53
2022-08-22T08:39:59.988Z,61.61
2022-08-22T08:40:59.944Z,62.40
2022-08-22T08:41:59.904Z,60.98
2022-08-22T08:43:00.191Z,59.69
2022-08-22T08:44:01.178Z,61.45
2022-08-22T08:45:01.135Z,59.27
2022-08-22T08:46:00.022Z,58.00
2022-08-22T08:47:00.151Z,59.03
2022-08-22T08:48:00.381Z,60.55
2022-08-22T08:49:00.017Z,59.62
2022-08-22T08:50:00.047Z,59.79
2022-08-22T08:51:02.113Z,58.80
2022-08-22T08:52:00.057Z,58.37
2022-08-22T08:52:59.975Z,57.38
2022-08-22T08:53:59.981Z,57.18
2022-08-22T08:55:00.008Z,56.81
2022-08-22T08:56:00.046Z,57.58
2022-08-22T08:56:59.976Z,58.37
2022-08-22T08:58:06.550Z,57.25
2022-08-22T08:59:00.716Z,57.15
2022-08-22T08:59:59.676Z,57.45
2022-08-22T09:00:59.689Z,57.75
2022-08-22T09:01:59.665Z,57.15
2022-08-22T09:02:59.634Z,57.23
2022-08-22T09:04:01.258Z,55.24
2022-08-22T09:04:59.615Z,55.17
2022-08-22T09:05:59.586Z,56.16
2022-08-22T09:07:01.173Z,55.87
2022-08-22T09:07:59.738Z,56.16
2022-08-22T09:08:59.553Z,56.04
2022-08-22T09:09:59.537Z,55.94
2022-08-22T09:10:59.525Z,55.51
2022-08-22T09:11:59.524Z,55.49
2022-08-22T09:13:12.529Z,55.09
2022-08-22T09:14:00.487Z,54.69
2022-08-22T09:14:59.477Z,54.32
2022-08-22T09:16:04.898Z,55.11
2022-08-22T09:17:00.466Z,55.39
2022-08-22T09:17:59.610Z,54.39
2022-08-22T09:18:59.426Z,53.45
2022-08-22T09:19:59.406Z,54.85
2022-08-22T09:20:59.397Z,54.02
2022-08-22T09:21:59.399Z,53.33
2022-08-22T09:22:59.377Z,53.41
2022-08-22T09:23:59.357Z,53.01
2022-08-22T09:24:59.347Z,54.10
2022-08-22T09:25:59.334Z,51.79
2022-08-22T09:26:59.347Z,50.29
2022-08-22T09:27:59.396Z,50.24
2022-08-22T09:28:59.299Z,50.73
2022-08-22T09:29:59.652Z,50.85
2022-08-22T09:30:59.268Z,51.05
2022-08-22T09:32:00.297Z,51.60
2022-08-22T09:32:59.239Z,52.61
2022-08-22T09:33:59.229Z,52.02
2022-08-22T09:34:59.218Z,53.83
2022-08-22T09:35:59.210Z,53.83
2022-08-22T09:36:59.199Z,55.29
2022-08-22T09:37:59.268Z,53.41
2022-08-22T09:38:59.168Z,50.71
2022-08-22T09:39:59.265Z,49.81
2022-08-22T09:41:00.204Z,50.23
2022-08-22T09:41:59.149Z,51.15
2022-08-22T09:42:59.313Z,49.24
2022-08-22T09:43:59.102Z,50.21
2022-08-22T09:44:59.088Z,52.24
2022-08-22T09:46:02.097Z,50.53
2022-08-22T09:46:59.060Z,50.95
2022-08-22T09:48:06.409Z,51.57
2022-08-22T09:49:00.030Z,51.97
2022-08-22T09:49:59.026Z,51.37
2022-08-22T09:51:13.569Z,49.89
2022-08-22T09:52:03.678Z,49.81
2022-08-22T09:53:00.391Z,48.63
2022-08-22T09:53:58.979Z,48.63
2022-08-22T09:54:58.959Z,51.23
2022-08-22T09:55:58.952Z,53.41
2022-08-22T09:56:58.931Z,51.72
2022-08-22T09:57:58.941Z,50.51
2022-08-22T09:58:58.912Z,50.01
2022-08-22T09:59:58.901Z,48.53
2022-08-22T10:00:58.902Z,48.85
2022-08-22T10:01:58.871Z,50.83
2022-08-22T10:02:58.994Z,51.03
2022-08-22T10:03:58.855Z,51.79
2022-08-22T10:04:58.833Z,51.35
2022-08-22T10:05:58.821Z,49.79
2022-08-22T10:06:58.802Z,48.27
2022-08-22T10:07:58.830Z,47.19
2022-08-22T10:08:58.782Z,45.35
2022-08-22T10:09:58.771Z,43.32
2022-08-22T10:10:58.755Z,42.29
2022-08-22T10:11:58.743Z,41.49
2022-08-22T10:12:58.868Z,40.33
2022-08-22T10:14:01.585Z,43.08
2022-08-22T10:14:58.704Z,42.25
2022-08-22T10:15:58.702Z,40.25
2022-08-22T10:16:58.674Z,39.17
2022-08-22T10:17:58.684Z,40.78
2022-08-22T10:19:00.707Z,41.88
2022-08-22T10:19:58.668Z,41.09
2022-08-22T10:20:58.624Z,41.09
2022-08-22T10:21:58.613Z,40.70
2022-08-22T10:22:58.889Z,40.84
2022-08-22T10:23:58.594Z,41.64
2022-08-22T10:24:58.783Z,41.49
2022-08-22T10:25:58.565Z,38.92
2022-08-22T10:26:58.553Z,39.39
2022-08-22T10:27:58.563Z,40.08
2022-08-22T10:28:58.524Z,40.72
2022-08-22T10:29:58.517Z,40.90
2022-08-22T10:30:58.503Z,40.37
2022-08-22T10:31:59.528Z,39.39
2022-08-22T10:32:58.670Z,38.54
2022-08-22T10:33:58.457Z,40.74
2022-08-22T10:34:58.456Z,40.90
2022-08-22T10:35:58.435Z,39.51
2022-08-22T10:36:58.426Z,39.06
2022-08-22T10:37:58.427Z,39.90
2022-08-22T10:38:58.445Z,39.07
2022-08-22T10:39:58.440Z,37.19
2022-08-22T10:40:58.379Z,37.21
2022-08-22T10:41:58.357Z,38.18
2022-08-22T10:42:59.396Z,38.57
2022-08-22T10:44:05.397Z,38.84
2022-08-22T10:44:58.338Z,37.29
2022-08-22T10:45:58.311Z,38.33
2022-08-22T10:46:58.301Z,38.84
2022-08-22T10:47:58.300Z,38.35
2022-08-22T10:48:58.281Z,37.78
2022-08-22T10:49:58.261Z,38.42
2022-08-22T10:50:58.252Z,39.03
2022-08-22T10:51:58.405Z,42.65
2022-08-22T10:52:58.399Z,40.55
2022-08-22T10:53:58.221Z,38.90
2022-08-22T10:54:58.212Z,40.25
2022-08-22T10:55:58.191Z,38.17
2022-08-22T10:56:59.295Z,38.85
2022-08-22T10:57:58.182Z,39.82
2022-08-22T10:58:58.177Z,39.00
2022-08-22T10:59:58.142Z,38.70
2022-08-22T11:00:58.398Z,38.13
2022-08-22T11:01:58.181Z,39.19
2022-08-22T11:02:58.534Z,38.90
2022-08-22T11:03:58.091Z,38.62
2022-08-22T11:04:58.097Z,39.70
2022-08-22T11:05:58.063Z,38.43
2022-08-22T11:06:58.067Z,38.06
2022-08-22T11:07:58.064Z,39.64
2022-08-22T11:08:58.034Z,39.61
2022-08-22T11:09:58.028Z,38.88
2022-08-22T11:10:58.037Z,39.04
2022-08-22T11:11:58.023Z,36.87
2022-08-22T11:12:58.209Z,35.89
2022-08-22T11:13:57.965Z,38.65
2022-08-22T11:14:57.963Z,36.96
2022-08-22T11:15:57.946Z,37.85
2022-08-22T11:16:57.944Z,37.41
2022-08-22T11:17:57.927Z,36.70
2022-08-22T11:19:02.841Z,35.84
2022-08-22T11:19:58.898Z,35.17
2022-08-22T11:20:57.909Z,36.36
2022-08-22T11:21:57.876Z,36.51
2022-08-22T11:22:57.982Z,38.13
2022-08-22T11:23:57.867Z,38.10
2022-08-22T11:25:01.178Z,38.73
2022-08-22T11:25:58.828Z,37.01
2022-08-22T11:26:58.817Z,36.02
2022-08-22T11:27:57.798Z,35.53
2022-08-22T11:28:57.811Z,35.61
2022-08-22T11:29:58.780Z,35.31
2022-08-22T11:30:57.768Z,35.41
2022-08-22T11:32:01.440Z,34.41
2022-08-22T11:32:59.545Z,35.63
2022-08-22T11:33:57.738Z,35.53
2022-08-22T11:34:57.728Z,34.89
2022-08-22T11:35:57.710Z,34.62
2022-08-22T11:36:58.699Z,36.24
2022-08-22T11:37:57.687Z,37.86
2022-08-22T11:38:57.701Z,38.41
2022-08-22T11:39:57.695Z,37.00
2022-08-22T11:40:57.670Z,37.04
2022-08-22T11:41:57.779Z,38.02
2022-08-22T11:42:57.630Z,36.40
2022-08-22T11:43:57.632Z,37.22
2022-08-22T11:44:57.614Z,35.72
2022-08-22T11:45:57.598Z,33.85
2022-08-22T11:46:58.108Z,33.95
2022-08-22T11:47:57.590Z,33.95
2022-08-22T11:48:57.581Z,34.26
2022-08-22T11:49:57.569Z,35.17
2022-08-22T11:50:57.572Z,35.46
2022-08-22T11:51:57.533Z,36.28
2022-08-22T11:52:57.523Z,36.87
2022-08-22T11:53:57.543Z,35.77
2022-08-22T11:54:57.502Z,36.26
2022-08-22T11:55:57.483Z,36.43
2022-08-22T11:56:57.473Z,35.75
2022-08-22T11:57:57.459Z,36.73
2022-08-22T11:58:57.462Z,35.75
2022-08-22T11:59:57.434Z,36.04
2022-08-22T12:00:57.424Z,34.83
2022-08-22T12:01:57.462Z,34.28
2022-08-22T12:02:57.404Z,35.06
2022-08-22T12:03:58.576Z,36.31
2022-08-22T12:04:57.391Z,37.75
2022-08-22T12:05:57.354Z,36.65
2022-08-22T12:06:57.389Z,34.82
2022-08-22T12:07:57.344Z,34.40
2022-08-22T12:08:57.344Z,33.80
2022-08-22T12:09:57.325Z,32.60
2022-08-22T12:10:57.325Z,32.60
2022-08-22T12:11:57.296Z,33.67
2022-08-22T12:12:57.285Z,35.55
2022-08-22T12:14:06.149Z,34.94
2022-08-22T12:14:58.265Z,36.88
2022-08-22T12:15:57.246Z,39.01
2022-08-22T12:16:57.246Z,39.11
2022-08-22T12:18:01.513Z,38.21
2022-08-22T12:18:57.228Z,38.13
2022-08-22T12:20:14.993Z,39.14
2022-08-22T12:20:58.186Z,37.65
2022-08-22T12:21:57.186Z,37.84
2022-08-22T12:22:57.172Z,38.12
2022-08-22T12:23:57.173Z,38.00
2022-08-22T12:25:02.190Z,37.37
2022-08-22T12:25:58.130Z,36.08
2022-08-22T12:26:57.147Z,35.77
2022-08-22T12:27:57.105Z,39.69
2022-08-22T12:28:57.119Z,38.57
2022-08-22T12:29:57.076Z,34.63
2022-08-22T12:30:57.076Z,35.88
2022-08-22T12:31:57.048Z,34.52
2022-08-22T12:32:57.107Z,36.45
2022-08-22T12:33:57.038Z,34.39
2022-08-22T12:34:57.018Z,32.11
2022-08-22T12:35:57.000Z,32.65
2022-08-22T12:36:57.000Z,36.06
2022-08-22T12:37:56.980Z,33.51
2022-08-22T12:38:56.980Z,32.52
2022-08-22T12:39:56.986Z,37.00
2022-08-22T12:40:56.950Z,34.06
2022-08-22T12:41:56.930Z,32.89
2022-08-22T12:42:56.920Z,33.56
2022-08-22T12:43:56.923Z,32.47
2022-08-22T12:44:56.900Z,33.41
2022-08-22T12:45:56.881Z,32.21
2022-08-22T12:46:56.880Z,31.73
2022-08-22T12:47:56.913Z,32.92
2022-08-22T12:48:56.882Z,32.02
2022-08-22T12:49:56.839Z,33.98
2022-08-22T12:50:56.841Z,35.75
2022-08-22T12:51:59.833Z,37.75
2022-08-22T12:52:57.801Z,37.79
2022-08-22T12:53:56.803Z,38.59
2022-08-22T12:54:56.786Z,38.28
2022-08-22T12:55:56.800Z,36.40
2022-08-22T12:56:56.762Z,36.32
2022-08-22T12:57:56.926Z,37.41
2022-08-22T12:58:56.742Z,38.47
2022-08-22T12:59:58.221Z,38.47
2022-08-22T13:00:56.797Z,39.86
2022-08-22T13:01:56.703Z,38.04
2022-08-22T13:02:56.727Z,40.53
2022-08-22T13:03:56.683Z,41.24
2022-08-22T13:04:56.674Z,41.82
2022-08-22T13:05:59.953Z,41.61
2022-08-22T13:06:56.644Z,41.98
2022-08-22T13:07:57.718Z,40.21
2022-08-22T13:08:56.635Z,41.51
2022-08-22T13:09:56.605Z,40.25
2022-08-22T13:10:56.601Z,41.82
2022-08-22T13:11:58.097Z,43.69
2022-08-22T13:12:56.574Z,43.37
2022-08-22T13:13:57.152Z,41.21
2022-08-22T13:14:56.547Z,41.61
2022-08-22T13:15:56.528Z,41.41
2022-08-22T13:16:56.516Z,42.58
2022-08-22T13:18:08.675Z,43.39
2022-08-22T13:18:57.514Z,42.90
2022-08-22T13:19:56.477Z,43.19
2022-08-22T13:20:56.471Z,44.30
2022-08-22T13:21:56.455Z,42.53
2022-08-22T13:22:56.448Z,41.55
2022-08-22T13:23:56.436Z,41.74
2022-08-22T13:24:56.427Z,41.56
2022-08-22T13:25:56.427Z,41.47
2022-08-22T13:26:56.407Z,42.94
2022-08-22T13:27:56.387Z,42.77
2022-08-22T13:29:09.245Z,43.36
2022-08-22T13:29:57.369Z,44.24
2022-08-22T13:30:56.348Z,47.39
2022-08-22T13:31:56.346Z,43.77
2022-08-22T13:32:56.319Z,44.85
2022-08-22T13:33:56.308Z,45.35
2022-08-22T13:34:56.309Z,43.48
2022-08-22T13:35:56.288Z,46.25
2022-08-22T13:36:56.269Z,43.10
2022-08-22T13:37:56.318Z,43.50
2022-08-22T13:38:56.251Z,43.13
2022-08-22T13:39:56.268Z,42.44
2022-08-22T13:40:56.219Z,42.24
2022-08-22T13:41:56.202Z,44.21
2022-08-22T13:42:56.208Z,44.80
2022-08-22T13:43:57.130Z,44.80
2022-08-22T13:44:56.190Z,45.29
2022-08-22T13:45:56.160Z,44.60
2022-08-22T13:47:13.965Z,45.47
2022-08-22T13:47:57.143Z,45.86
2022-08-22T13:49:00.739Z,45.47
2022-08-22T13:49:57.119Z,45.84
2022-08-22T13:50:56.103Z,44.26
2022-08-22T13:51:56.071Z,46.23
2022-08-22T13:52:56.072Z,43.70
2022-08-22T13:54:02.063Z,44.70
2022-08-22T13:54:57.051Z,45.49
2022-08-22T13:55:56.022Z,45.51
2022-08-22T13:56:56.011Z,45.09
2022-08-22T13:57:56.062Z,44.40
2022-08-22T13:58:55.991Z,44.80
2022-08-22T14:00:04.806Z,45.17
2022-08-22T14:00:57.406Z,45.45
2022-08-22T14:01:56.018Z,43.57
2022-08-22T14:02:55.962Z,45.52
2022-08-22T14:03:55.933Z,43.85
2022-08-22T14:04:55.914Z,43.85
2022-08-22T14:05:55.893Z,44.15
2022-08-22T14:06:56.884Z,44.34
2022-08-22T14:07:55.871Z,42.38
2022-08-22T14:08:55.883Z,40.70
2022-08-22T14:09:55.852Z,42.16
2022-08-22T14:11:02.163Z,43.93
2022-08-22T14:11:56.823Z,44.49
2022-08-22T14:12:55.823Z,41.45
2022-08-22T14:13:55.824Z,41.16
2022-08-22T14:14:55.793Z,41.21
2022-08-22T14:15:55.774Z,40.90
2022-08-22T14:16:55.765Z,41.08
2022-08-22T14:17:55.782Z,39.69
2022-08-22T14:18:55.745Z,39.37
2022-08-22T14:19:59.428Z,40.74
2022-08-22T14:20:56.725Z,40.55
2022-08-22T14:21:55.705Z,39.98
2022-08-22T14:22:58.969Z,41.56
2022-08-22T14:23:56.695Z,42.39
2022-08-22T14:24:56.011Z,41.51
2022-08-22T14:25:55.646Z,40.86
2022-08-22T14:26:57.847Z,42.85
2022-08-22T14:27:55.682Z,41.69
2022-08-22T14:28:55.619Z,43.75
2022-08-22T14:29:55.606Z,42.55
2022-08-22T14:30:59.427Z,41.45
2022-08-22T14:31:56.576Z,40.09
2022-08-22T14:32:55.567Z,40.58
2022-08-22T14:33:55.559Z,43.14
2022-08-22T14:34:55.557Z,41.96
2022-08-22T14:35:55.528Z,41.78
2022-08-22T14:36:55.518Z,41.98
2022-08-22T14:37:55.512Z,45.99
2022-08-22T14:38:55.498Z,43.04
2022-08-22T14:39:55.557Z,41.96
2022-08-22T14:40:55.478Z,42.82
2022-08-22T14:41:57.969Z,42.43
2022-08-22T14:42:55.439Z,42.33
2022-08-22T14:43:55.419Z,41.84
2022-08-22T14:44:55.429Z,40.27
2022-08-22T14:45:55.399Z,40.76
2022-08-22T14:46:55.409Z,41.77
2022-08-22T14:48:30.097Z,42.25
2022-08-22T14:48:56.371Z,42.67
2022-08-22T14:49:55.370Z,42.12
2022-08-22T14:50:55.345Z,44.98
2022-08-22T14:51:55.320Z,43.60
2022-08-22T14:52:55.319Z,44.29
2022-08-22T14:53:55.300Z,45.54
2022-08-22T14:54:55.323Z,44.26
2022-08-22T14:55:55.280Z,43.06
2022-08-22T14:56:55.271Z,43.33
2022-08-22T14:57:55.318Z,42.35
2022-08-22T14:58:55.259Z,43.71
2022-08-22T14:59:55.241Z,42.92
2022-08-22T15:00:55.221Z,41.94
2022-08-22T15:01:55.225Z,41.74
2022-08-22T15:02:55.191Z,41.55
2022-08-22T15:03:55.171Z,42.80
2022-08-22T15:04:55.171Z,41.80
2022-08-22T15:05:55.152Z,40.88
2022-08-22T15:06:55.140Z,41.42
2022-08-22T15:07:55.187Z,38.84
2022-08-22T15:08:55.112Z,40.27
2022-08-22T15:09:55.102Z,36.99
2022-08-22T15:10:55.091Z,37.46
2022-08-22T15:11:55.071Z,35.47
2022-08-22T15:12:55.083Z,36.24
2022-08-22T15:13:55.062Z,34.56
2022-08-22T15:14:55.053Z,34.95
2022-08-22T15:15:59.782Z,34.68
2022-08-22T15:16:56.022Z,36.27
2022-08-22T15:17:55.164Z,37.87
2022-08-22T15:18:54.993Z,37.81
2022-08-22T15:19:54.992Z,38.61
2022-08-22T15:20:54.964Z,38.43
2022-08-22T15:21:54.944Z,38.20
2022-08-22T15:22:54.950Z,39.72
2022-08-22T15:23:54.942Z,41.33
2022-08-22T15:24:56.415Z,41.72
2022-08-22T15:25:54.904Z,41.35
2022-08-22T15:26:55.486Z,43.12
2022-08-22T15:27:54.886Z,42.33
2022-08-22T15:28:54.875Z,42.24
2022-08-22T15:29:54.905Z,42.96
2022-08-22T15:30:54.845Z,43.16
2022-08-22T15:31:54.826Z,43.26
2022-08-22T15:32:54.926Z,40.51
2022-08-22T15:33:54.827Z,41.51
2022-08-22T15:34:54.825Z,42.00
2022-08-22T15:35:54.786Z,43.97
2022-08-22T15:36:54.797Z,42.00
2022-08-22T15:37:54.766Z,43.48
2022-08-22T15:38:54.747Z,44.36
2022-08-22T15:39:54.782Z,42.99
2022-08-22T15:40:54.717Z,45.23
2022-08-22T15:41:54.707Z,43.95
2022-08-22T15:42:54.698Z,43.65
2022-08-22T15:43:54.677Z,44.12
2022-08-22T15:44:54.679Z,43.43
2022-08-22T15:45:54.647Z,42.65
2022-08-22T15:46:54.668Z,41.98
2022-08-22T15:47:54.627Z,42.47
2022-08-22T15:48:54.617Z,41.78
2022-08-22T15:49:54.598Z,44.64
2022-08-22T15:50:54.607Z,44.83
2022-08-22T15:51:54.578Z,42.85
2022-08-22T15:52:56.542Z,43.14
2022-08-22T15:53:55.558Z,42.06
2022-08-22T15:54:54.561Z,41.69
2022-08-22T15:55:54.539Z,43.63
2022-08-22T15:56:54.532Z,43.16
2022-08-22T15:57:54.510Z,43.26
2022-08-22T15:58:54.532Z,42.06
2022-08-22T15:59:54.720Z,41.21
2022-08-22T16:00:54.481Z,39.47
2022-08-22T16:01:54.525Z,38.59
2022-08-22T16:02:54.509Z,38.92
2022-08-22T16:03:54.430Z,39.15
2022-08-22T16:04:54.438Z,38.64
2022-08-22T16:05:55.657Z,39.01
2022-08-22T16:06:54.392Z,40.11
2022-08-22T16:07:54.382Z,39.95
2022-08-22T16:08:54.375Z,39.94
2022-08-22T16:09:54.355Z,38.33
2022-08-22T16:10:54.372Z,38.10
2022-08-22T16:11:54.342Z,40.01
2022-08-22T16:12:54.383Z,38.02
2022-08-22T16:13:54.310Z,38.18
2022-08-22T16:14:54.312Z,36.80
2022-08-22T16:15:56.716Z,35.17
2022-08-22T16:16:54.281Z,38.12
2022-08-22T16:17:54.344Z,38.82
2022-08-22T16:18:54.257Z,37.12
2022-08-22T16:19:54.242Z,37.83
2022-08-22T16:20:54.245Z,39.82
2022-08-22T16:21:54.203Z,40.64
2022-08-22T16:22:54.205Z,40.27
2022-08-22T16:23:54.227Z,39.31
2022-08-22T16:24:54.174Z,39.45
2022-08-22T16:25:54.182Z,40.84
2022-08-22T16:26:54.154Z,41.78
2022-08-22T16:27:54.214Z,42.40
2022-08-22T16:28:58.341Z,42.69
2022-08-22T16:29:54.115Z,40.39
2022-08-22T16:30:54.116Z,40.41
2022-08-22T16:31:54.096Z,40.82
2022-08-22T16:32:54.084Z,41.78
2022-08-22T16:33:54.056Z,41.47
2022-08-22T16:34:54.060Z,42.06
2022-08-22T16:35:54.045Z,40.80
2022-08-22T16:36:54.025Z,41.08
2022-08-22T16:37:54.070Z,40.47
2022-08-22T16:38:54.011Z,41.14
2022-08-22T16:39:54.027Z,41.35
2022-08-22T16:40:53.987Z,41.00
2022-08-22T16:41:53.956Z,42.32
2022-08-22T16:42:53.949Z,43.10
2022-08-22T16:43:55.103Z,45.09
2022-08-22T16:45:01.012Z,45.81
2022-08-22T16:45:53.913Z,44.74
2022-08-22T16:46:53.903Z,44.87
2022-08-22T16:47:58.010Z,45.48
2022-08-22T16:48:53.881Z,44.22
2022-08-22T16:49:53.876Z,46.00
2022-08-22T16:50:53.854Z,46.29
2022-08-22T16:51:53.853Z,45.89
2022-08-22T16:52:53.824Z,44.32
2022-08-22T16:53:53.814Z,45.50
2022-08-22T16:54:53.812Z,46.00
2022-08-22T16:55:53.785Z,46.78
2022-08-22T16:56:53.764Z,47.77
2022-08-22T16:58:05.758Z,46.41
2022-08-22T16:59:06.075Z,47.60
2022-08-22T16:59:54.755Z,47.10
2022-08-22T17:00:57.722Z,46.61
2022-08-22T17:01:53.743Z,45.92
2022-08-22T17:02:53.695Z,46.14
2022-08-22T17:03:53.685Z,46.09
2022-08-22T17:04:53.675Z,47.55
2022-08-22T17:05:53.655Z,46.59
2022-08-22T17:06:53.647Z,46.09
2022-08-22T17:07:53.636Z,46.31
2022-08-22T17:08:53.615Z,46.41
2022-08-22T17:09:53.655Z,46.22
2022-08-22T17:10:53.596Z,47.20
2022-08-22T17:11:53.592Z,47.99
2022-08-22T17:12:53.565Z,48.09
2022-08-22T17:13:53.572Z,47.60
2022-08-22T17:14:53.596Z,46.22
2022-08-22T17:15:53.534Z,47.40
2022-08-22T17:16:54.266Z,47.42
2022-08-22T17:17:53.510Z,48.31
2022-08-22T17:18:53.497Z,47.32
2022-08-22T17:19:53.506Z,48.31
2022-08-22T17:20:53.476Z,47.32
2022-08-22T17:21:53.607Z,47.91
2022-08-22T17:22:53.437Z,48.21